Rochester, NY

6:57 PM EDT on May 06, 2015 (GMT -0400)
Buffalo Niagara International | | Change Station
CLOSE
Current Station
Airport
Location: Buffalo,
Elevation: 702 ft
Nearby Weather Stations

Elev 702 ft 42.94 °N, 78.74 °W | Updated 1 hour ago

Clear
Clear
76 °F
Feels Like 76 °F
N
4
Wind Variable Wind from NNW

Today
High -- | Low -- °F
--% Chance of Precip.
Yesterday
High -- | Low -- °F
Precip. -- in
5:57 AM 8:17 PM
Waning Gibbous, 92% visible
Pressure 30.16 in
Visibility 10.0 miles
Clouds Few 6000 ft
Few 16000 ft
Few 20000 ft
Scattered Clouds 25000 ft
Dew Point 47 °F
Humidity 36%
Rainfall 0.00 in
Snow Depth Not available.
UV 2 out of 12
Pollen 10.50 out of 12
Air Quality Not available.
Flu Activity Widespread
METAR KBUF 062154Z 33003KT 10SM FEW060 FEW160 FEW200 SCT250 24/08 A3016 RMK AO2 SLP212 T02440083

More Conditions Fewer Conditions

Pressure 30.16 in
Visibility 10.0 miles
Clouds Few 6000 ft
Few 16000 ft
Few 20000 ft
Scattered Clouds 25000 ft
Dew Point 47 °F
Humidity 36%
Rainfall 0.00 in
Snow Depth Not available.
UV 2 out of 12
Pollen 10.50 out of 12
Air Quality Not available.
Flu Activity Widespread
METAR KBUF 062154Z 33003KT 10SM FEW060 FEW160 FEW200 SCT250 24/08 A3016 RMK AO2 SLP212 T02440083

More Conditions Fewer Conditions

10-Day Weather Forecast

Almanac

Astronomy

May. 06, 2015 Rise Set
Actual Time
Civil Twilight
Nautical Twilight
Astronomical Twilight
Moon
Length of Visible Light
Length of Day
Tomorrow will be .
, % of the Moon is Illuminated

Today's Extremes

State Highs State Lows

Community

WunderPhotos

Upload Photos

1,819,034 photos uploaded!

WunderBlogs® & News

Nearby

Air Quality

  Air Quality AQ Index Pollutant
Not available.

Snow Depth

Station Depth Elevation

Earthquake Activity

City Distance Mag. Time & Date
Minimum magnitude displayed is 2.5.

Coastal Water Temperatures

Place Temperature

Stations

Nearby Weather Stations

Station Location Temp. Windchill Dew Point Humidity Wind Precip. Elev Updated Type